sensor_id;sensor_type;location;lat;lon;timestamp;pressure;altitude;pressure_sealevel;temperature;humidity
71764;BME280;59602;52.142;5.408;2024-01-15T00:00:20;100438.03;;;2.94;100.00
71764;BME280;59602;52.142;5.408;2024-01-15T00:02:47;100433.56;;;2.86;100.00
71764;BME280;59602;52.142;5.408;2024-01-15T00:05:14;100434.22;;;2.83;100.00
71764;BME280;59602;52.142;5.408;2024-01-15T00:07:40;100437.84;;;2.75;100.00
71764;BME280;59602;52.142;5.408;2024-01-15T00:10:07;100432.00;;;2.73;100.00
71764;BME280;59602;52.142;5.408;2024-01-15T00:12:34;100422.28;;;2.68;100.00
71764;BME280;59602;52.142;5.408;2024-01-15T00:15:00;100426.75;;;2.64;100.00
71764;BME280;59602;52.142;5.408;2024-01-15T00:17:27;100415.22;;;2.63;100.00
71764;BME280;59602;52.142;5.408;2024-01-15T00:19:54;100417.91;;;2.63;100.00
71764;BME280;59602;52.142;5.408;2024-01-15T00:22:20;100418.13;;;2.58;100.00
71764;BME280;59602;52.142;5.408;2024-01-15T00:24:47;100408.53;;;2.57;100.00
71764;BME280;59602;52.142;5.408;2024-01-15T00:27:14;100406.50;;;2.54;100.00
71764;BME280;59602;52.142;5.408;2024-01-15T00:29:41;100403.38;;;2.52;100.00
71764;BME280;59602;52.142;5.408;2024-01-15T00:32:07;100400.03;;;2.55;100.00
71764;BME280;59602;52.142;5.408;2024-01-15T00:34:34;100404.25;;;2.56;100.00
71764;BME280;59602;52.142;5.408;2024-01-15T00:37:01;100402.91;;;2.50;100.00
71764;BME280;59602;52.142;5.408;2024-01-15T00:39:27;100395.00;;;2.41;100.00
71764;BME280;59602;52.142;5.408;2024-01-15T00:41:54;100396.78;;;2.37;100.00
71764;BME280;59602;52.142;5.408;2024-01-15T00:44:21;100392.19;;;2.38;100.00
71764;BME280;59602;52.142;5.408;2024-01-15T00:46:47;100385.28;;;2.37;100.00
71764;BME280;59602;52.142;5.408;2024-01-15T00:49:15;100381.13;;;2.39;100.00
71764;BME280;59602;52.142;5.408;2024-01-15T00:51:42;100373.41;;;2.38;100.00
71764;BME280;59602;52.142;5.408;2024-01-15T00:54:09;100375.41;;;2.41;100.00
71764;BME280;59602;52.142;5.408;2024-01-15T00:56:36;100370.72;;;2.38;100.00
71764;BME280;59602;52.142;5.408;2024-01-15T00:59:03;100376.78;;;2.35;100.00
71764;BME280;59602;52.142;5.408;2024-01-15T01:01:29;100375.19;;;2.34;100.00
71764;BME280;59602;52.142;5.408;2024-01-15T01:03:56;100379.09;;;2.36;100.00
71764;BME280;59602;52.142;5.408;2024-01-15T01:06:24;100374.19;;;2.38;100.00
71764;BME280;59602;52.142;5.408;2024-01-15T01:08:51;100362.56;;;2.34;100.00
71764;BME280;59602;52.142;5.408;2024-01-15T01:11:18;100360.78;;;2.38;100.00
71764;BME280;59602;52.142;5.408;2024-01-15T01:13:44;100361.91;;;2.37;100.00
71764;BME280;59602;52.142;5.408;2024-01-15T01:16:11;100366.38;;;2.33;100.00
71764;BME280;59602;52.142;5.408;2024-01-15T01:18:38;100367.38;;;2.28;100.00
71764;BME280;59602;52.142;5.408;2024-01-15T01:21:05;100358.66;;;2.32;100.00
71764;BME280;59602;52.142;5.408;2024-01-15T01:23:31;100356.41;;;2.34;100.00
71764;BME280;59602;52.142;5.408;2024-01-15T01:25:58;100361.78;;;2.34;100.00
71764;BME280;59602;52.142;5.408;2024-01-15T01:28:25;100364.59;;;2.37;100.00
71764;BME280;59602;52.142;5.408;2024-01-15T01:30:51;100370.41;;;2.39;100.00
71764;BME280;59602;52.142;5.408;2024-01-15T01:33:18;100368.63;;;2.43;100.00
71764;BME280;59602;52.142;5.408;2024-01-15T01:35:45;100372.84;;;2.44;100.00
71764;BME280;59602;52.142;5.408;2024-01-15T01:38:13;100374.09;;;2.47;100.00
71764;BME280;59602;52.142;5.408;2024-01-15T01:40:40;100377.09;;;2.45;100.00
71764;BME280;59602;52.142;5.408;2024-01-15T01:43:08;100370.28;;;2.48;100.00
71764;BME280;59602;52.142;5.408;2024-01-15T01:45:36;100366.81;;;2.47;100.00
71764;BME280;59602;52.142;5.408;2024-01-15T01:48:03;100366.03;;;2.47;100.00
71764;BME280;59602;52.142;5.408;2024-01-15T01:50:31;100368.38;;;2.48;100.00
71764;BME280;59602;52.142;5.408;2024-01-15T01:53:00;100363.03;;;2.48;100.00
71764;BME280;59602;52.142;5.408;2024-01-15T01:55:27;100356.53;;;2.49;100.00
71764;BME280;59602;52.142;5.408;2024-01-15T01:57:55;100358.44;;;2.49;100.00
71764;BME280;59602;52.142;5.408;2024-01-15T02:00:23;100358.88;;;2.51;100.00
71764;BME280;59602;52.142;5.408;2024-01-15T02:02:50;100361.25;;;2.53;100.00
71764;BME280;59602;52.142;5.408;2024-01-15T02:05:18;100362.00;;;2.53;100.00
71764;BME280;59602;52.142;5.408;2024-01-15T02:07:45;100366.25;;;2.54;100.00
71764;BME280;59602;52.142;5.408;2024-01-15T02:10:13;100380.22;;;2.60;100.00
71764;BME280;59602;52.142;5.408;2024-01-15T02:12:40;100383.13;;;2.67;100.00
71764;BME280;59602;52.142;5.408;2024-01-15T02:15:07;100407.28;;;2.67;100.00
71764;BME280;59602;52.142;5.408;2024-01-15T02:17:34;100392.97;;;2.63;100.00
71764;BME280;59602;52.142;5.408;2024-01-15T02:20:01;100379.09;;;2.61;100.00
71764;BME280;59602;52.142;5.408;2024-01-15T02:22:28;100382.69;;;2.65;100.00
71764;BME280;59602;52.142;5.408;2024-01-15T02:24:54;100377.75;;;2.67;100.00
71764;BME280;59602;52.142;5.408;2024-01-15T02:27:21;100374.31;;;2.66;100.00
71764;BME280;59602;52.142;5.408;2024-01-15T02:29:48;100373.84;;;2.64;100.00
71764;BME280;59602;52.142;5.408;2024-01-15T02:32:15;100374.53;;;2.61;100.00
71764;BME280;59602;52.142;5.408;2024-01-15T02:34:42;100366.38;;;2.58;100.00
71764;BME280;59602;52.142;5.408;2024-01-15T02:37:09;100371.41;;;2.59;100.00
71764;BME280;59602;52.142;5.408;2024-01-15T02:39:35;100370.16;;;2.57;100.00
71764;BME280;59602;52.142;5.408;2024-01-15T02:42:02;100367.72;;;2.64;100.00
71764;BME280;59602;52.142;5.408;2024-01-15T02:44:29;100358.75;;;2.60;100.00
71764;BME280;59602;52.142;5.408;2024-01-15T02:46:56;100363.81;;;2.61;100.00
71764;BME280;59602;52.142;5.408;2024-01-15T02:49:22;100356.41;;;2.58;100.00
71764;BME280;59602;52.142;5.408;2024-01-15T02:51:49;100358.66;;;2.56;100.00
71764;BME280;59602;52.142;5.408;2024-01-15T02:54:16;100358.66;;;2.56;100.00
71764;BME280;59602;52.142;5.408;2024-01-15T02:56:42;100361.78;;;2.58;100.00
71764;BME280;59602;52.142;5.408;2024-01-15T02:59:09;100361.13;;;2.61;100.00
71764;BME280;59602;52.142;5.408;2024-01-15T03:01:36;100363.34;;;2.59;100.00
71764;BME280;59602;52.142;5.408;2024-01-15T03:04:05;100351.94;;;2.62;100.00
71764;BME280;59602;52.142;5.408;2024-01-15T03:06:37;100354.19;;;2.60;100.00
71764;BME280;59602;52.142;5.408;2024-01-15T03:09:07;100346.91;;;2.61;100.00
71764;BME280;59602;52.142;5.408;2024-01-15T03:11:38;100341.53;;;2.61;100.00
71764;BME280;59602;52.142;5.408;2024-01-15T03:14:05;100338.53;;;2.62;100.00
71764;BME280;59602;52.142;5.408;2024-01-15T03:16:32;100343.56;;;2.64;100.00
71764;BME280;59602;52.142;5.408;2024-01-15T03:18:58;100341.53;;;2.61;100.00
71764;BME280;59602;52.142;5.408;2024-01-15T03:21:25;100344.44;;;2.56;100.00
71764;BME280;59602;52.142;5.408;2024-01-15T03:23:52;100338.63;;;2.54;100.00
71764;BME280;59602;52.142;5.408;2024-01-15T03:26:18;100338.31;;;2.55;100.00
71764;BME280;59602;52.142;5.408;2024-01-15T03:28:45;100344.00;;;2.54;100.00
71764;BME280;59602;52.142;5.408;2024-01-15T03:31:12;100358.19;;;2.54;100.00
71764;BME280;59602;52.142;5.408;2024-01-15T03:33:44;100356.31;;;2.55;100.00
71764;BME280;59602;52.142;5.408;2024-01-15T03:36:14;100361.31;;;2.56;100.00
71764;BME280;59602;52.142;5.408;2024-01-15T03:38:50;100363.00;;;2.61;100.00
71764;BME280;59602;52.142;5.408;2024-01-15T03:41:20;100379.22;;;2.64;100.00
71764;BME280;59602;52.142;5.408;2024-01-15T03:43:46;100380.00;;;2.65;100.00
71764;BME280;59602;52.142;5.408;2024-01-15T03:46:13;100377.75;;;2.67;100.00
71764;BME280;59602;52.142;5.408;2024-01-15T03:48:40;100364.47;;;2.70;100.00
71764;BME280;59602;52.142;5.408;2024-01-15T03:51:07;100351.94;;;2.75;100.00
71764;BME280;59602;52.142;5.408;2024-01-15T03:53:33;100339.84;;;2.68;100.00
71764;BME280;59602;52.142;5.408;2024-01-15T03:56:00;100331.34;;;2.66;100.00
71764;BME280;59602;52.142;5.408;2024-01-15T03:58:27;100321.84;;;2.69;100.00
71764;BME280;59602;52.142;5.408;2024-01-15T04:00:53;100318.59;;;2.63;100.00
71764;BME280;59602;52.142;5.408;2024-01-15T04:03:20;100321.53;;;2.58;100.00
71764;BME280;59602;52.142;5.408;2024-01-15T04:05:48;100317.84;;;2.51;100.00
71764;BME280;59602;52.142;5.408;2024-01-15T04:08:21;100311.16;;;2.44;100.00
71764;BME280;59602;52.142;5.408;2024-01-15T04:10:51;100309.94;;;2.42;100.00
71764;BME280;59602;52.142;5.408;2024-01-15T04:13:18;100301.75;;;2.38;100.00
71764;BME280;59602;52.142;5.408;2024-01-15T04:15:45;100302.13;;;2.37;100.00
71764;BME280;59602;52.142;5.408;2024-01-15T04:18:11;100302.19;;;2.40;100.00
71764;BME280;59602;52.142;5.408;2024-01-15T04:20:38;100301.44;;;2.40;100.00
71764;BME280;59602;52.142;5.408;2024-01-15T04:23:05;100301.31;;;2.36;100.00
71764;BME280;59602;52.142;5.408;2024-01-15T04:25:31;100294.72;;;2.34;100.00
71764;BME280;59602;52.142;5.408;2024-01-15T04:27:58;100293.38;;;2.27;100.00
71764;BME280;59602;52.142;5.408;2024-01-15T04:30:25;100284.47;;;2.23;100.00
71764;BME280;59602;52.142;5.408;2024-01-15T04:32:54;100292.50;;;2.23;100.00
71764;BME280;59602;52.142;5.408;2024-01-15T04:35:22;100299.22;;;2.17;100.00
71764;BME280;59602;52.142;5.408;2024-01-15T04:37:54;100286.91;;;2.16;100.00
71764;BME280;59602;52.142;5.408;2024-01-15T04:40:27;100280.19;;;2.22;100.00
71764;BME280;59602;52.142;5.408;2024-01-15T04:42:57;100283.44;;;2.16;100.00
71764;BME280;59602;52.142;5.408;2024-01-15T04:45:23;100276.53;;;2.15;100.00
71764;BME280;59602;52.142;5.408;2024-01-15T04:47:54;100278.84;;;2.16;100.00
71764;BME280;59602;52.142;5.408;2024-01-15T04:50:23;100272.72;;;2.16;100.00
71764;BME280;59602;52.142;5.408;2024-01-15T04:52:50;100276.19;;;2.28;100.00
71764;BME280;59602;52.142;5.408;2024-01-15T04:55:17;100266.56;;;2.27;100.00
71764;BME280;59602;52.142;5.408;2024-01-15T04:57:43;100281.44;;;2.25;100.00
71764;BME280;59602;52.142;5.408;2024-01-15T05:00:11;100300.09;;;2.21;100.00
71764;BME280;59602;52.142;5.408;2024-01-15T05:02:38;100278.66;;;2.21;100.00
71764;BME280;59602;52.142;5.408;2024-01-15T05:05:07;100277.28;;;2.27;100.00
71764;BME280;59602;52.142;5.408;2024-01-15T05:07:43;100277.72;;;2.29;100.00
71764;BME280;59602;52.142;5.408;2024-01-15T05:10:15;100274.28;;;2.29;100.00
71764;BME280;59602;52.142;5.408;2024-01-15T05:12:46;100270.59;;;2.34;100.00
71764;BME280;59602;52.142;5.408;2024-01-15T05:15:13;100266.09;;;2.38;100.00
71764;BME280;59602;52.142;5.408;2024-01-15T05:17:40;100257.63;;;2.36;100.00
71764;BME280;59602;52.142;5.408;2024-01-15T05:20:07;100258.94;;;2.42;100.00
71764;BME280;59602;52.142;5.408;2024-01-15T05:22:33;100263.53;;;2.41;100.00
71764;BME280;59602;52.142;5.408;2024-01-15T05:25:00;100263.88;;;2.40;100.00
71764;BME280;59602;52.142;5.408;2024-01-15T05:27:27;100262.66;;;2.37;100.00
71764;BME280;59602;52.142;5.408;2024-01-15T05:29:53;100257.28;;;2.37;100.00
71764;BME280;59602;52.142;5.408;2024-01-15T05:32:20;100271.16;;;2.39;100.00
71764;BME280;59602;52.142;5.408;2024-01-15T05:34:47;100272.59;;;2.37;100.00
71764;BME280;59602;52.142;5.408;2024-01-15T05:37:14;100265.78;;;2.39;100.00
71764;BME280;59602;52.142;5.408;2024-01-15T05:39:40;100267.00;;;2.42;100.00
71764;BME280;59602;52.142;5.408;2024-01-15T05:42:07;100277.72;;;2.42;100.00
71764;BME280;59602;52.142;5.408;2024-01-15T05:44:34;100275.28;;;2.37;100.00
71764;BME280;59602;52.142;5.408;2024-01-15T05:47:00;100271.91;;;2.40;100.00
71764;BME280;59602;52.142;5.408;2024-01-15T05:49:27;100274.03;;;2.46;100.00
71764;BME280;59602;52.142;5.408;2024-01-15T05:51:54;100273.34;;;2.49;100.00
71764;BME280;59602;52.142;5.408;2024-01-15T05:54:21;100275.00;;;2.54;100.00
71764;BME280;59602;52.142;5.408;2024-01-15T05:56:47;100277.81;;;2.58;100.00
71764;BME280;59602;52.142;5.408;2024-01-15T05:59:14;100284.06;;;2.62;100.00
71764;BME280;59602;52.142;5.408;2024-01-15T06:01:41;100286.84;;;2.65;100.00
71764;BME280;59602;52.142;5.408;2024-01-15T06:04:08;100284.59;;;2.67;100.00
71764;BME280;59602;52.142;5.408;2024-01-15T06:06:35;100291.19;;;2.70;100.00
71764;BME280;59602;52.142;5.408;2024-01-15T06:09:02;100294.88;;;2.65;100.00
71764;BME280;59602;52.142;5.408;2024-01-15T06:11:32;100293.34;;;2.64;100.00
71764;BME280;59602;52.142;5.408;2024-01-15T06:13:59;100282.59;;;2.64;100.00
71764;BME280;59602;52.142;5.408;2024-01-15T06:16:29;100270.53;;;2.58;100.00
71764;BME280;59602;52.142;5.408;2024-01-15T06:18:56;100270.44;;;2.55;100.00
71764;BME280;59602;52.142;5.408;2024-01-15T06:21:23;100264.84;;;2.47;100.00
71764;BME280;59602;52.142;5.408;2024-01-15T06:23:50;100266.75;;;2.47;100.00
71764;BME280;59602;52.142;5.408;2024-01-15T06:26:17;100264.66;;;2.40;100.00
71764;BME280;59602;52.142;5.408;2024-01-15T06:28:43;100264.97;;;2.39;100.00
71764;BME280;59602;52.142;5.408;2024-01-15T06:31:10;100262.53;;;2.34;100.00
71764;BME280;59602;52.142;5.408;2024-01-15T06:33:37;100263.75;;;2.36;100.00
71764;BME280;59602;52.142;5.408;2024-01-15T06:36:05;100267.25;;;2.37;100.00
71764;BME280;59602;52.142;5.408;2024-01-15T06:38:32;100264.97;;;2.39;100.00
71764;BME280;59602;52.142;5.408;2024-01-15T06:40:59;100260.28;;;2.36;100.00
71764;BME280;59602;52.142;5.408;2024-01-15T06:43:25;100258.38;;;2.36;100.00
71764;BME280;59602;52.142;5.408;2024-01-15T06:45:52;100257.28;;;2.37;100.00
71764;BME280;59602;52.142;5.408;2024-01-15T06:48:19;100252.25;;;2.36;100.00
71764;BME280;59602;52.142;5.408;2024-01-15T06:50:46;100260.28;;;2.36;100.00
71764;BME280;59602;52.142;5.408;2024-01-15T06:53:12;100262.09;;;2.32;100.00
71764;BME280;59602;52.142;5.408;2024-01-15T06:55:39;100255.94;;;2.31;100.00
71764;BME280;59602;52.142;5.408;2024-01-15T06:58:06;100251.34;;;2.32;100.00
71764;BME280;59602;52.142;5.408;2024-01-15T07:00:32;100246.09;;;2.35;100.00
71764;BME280;59602;52.142;5.408;2024-01-15T07:03:00;100241.84;;;2.34;100.00
71764;BME280;59602;52.142;5.408;2024-01-15T07:05:26;100244.88;;;2.33;100.00
71764;BME280;59602;52.142;5.408;2024-01-15T07:07:53;100250.91;;;2.29;100.00
71764;BME280;59602;52.142;5.408;2024-01-15T07:10:20;100245.91;;;2.28;100.00
71764;BME280;59602;52.142;5.408;2024-01-15T07:12:47;100240.63;;;2.32;100.00
71764;BME280;59602;52.142;5.408;2024-01-15T07:15:14;100252.81;;;2.41;100.00
71764;BME280;59602;52.142;5.408;2024-01-15T07:17:42;100264.06;;;2.47;100.00
71764;BME280;59602;52.142;5.408;2024-01-15T07:20:09;100295.50;;;2.46;100.00
71764;BME280;59602;52.142;5.408;2024-01-15T07:22:36;100300.41;;;2.44;100.00
71764;BME280;59602;52.142;5.408;2024-01-15T07:25:04;100292.38;;;2.32;100.00
71764;BME280;59602;52.142;5.408;2024-01-15T07:27:31;100275.72;;;2.26;100.00
71764;BME280;59602;52.142;5.408;2024-01-15T07:29:59;100265.44;;;2.28;100.00
71764;BME280;59602;52.142;5.408;2024-01-15T07:32:28;100267.91;;;2.34;100.00
71764;BME280;59602;52.142;5.408;2024-01-15T07:34:55;100267.44;;;2.32;100.00
71764;BME280;59602;52.142;5.408;2024-01-15T07:37:22;100264.75;;;2.32;100.00
71764;BME280;59602;52.142;5.408;2024-01-15T07:39:50;100269.59;;;2.26;100.00
71764;BME280;59602;52.142;5.408;2024-01-15T07:42:17;100258.88;;;2.26;100.00
71764;BME280;59602;52.142;5.408;2024-01-15T07:44:43;100256.50;;;2.24;100.00
71764;BME280;59602;52.142;5.408;2024-01-15T07:47:11;100263.88;;;2.27;100.00
71764;BME280;59602;52.142;5.408;2024-01-15T07:49:38;100278.19;;;2.32;100.00
71764;BME280;59602;52.142;5.408;2024-01-15T07:52:06;100284.88;;;2.38;100.00
71764;BME280;59602;52.142;5.408;2024-01-15T07:54:32;100275.38;;;2.40;100.00
71764;BME280;59602;52.142;5.408;2024-01-15T07:57:01;100276.38;;;2.48;100.00
71764;BME280;59602;52.142;5.408;2024-01-15T07:59:29;100277.59;;;2.51;100.00
71764;BME280;59602;52.142;5.408;2024-01-15T08:01:58;100270.00;;;2.53;100.00
71764;BME280;59602;52.142;5.408;2024-01-15T08:04:26;100284.19;;;2.53;100.00
71764;BME280;59602;52.142;5.408;2024-01-15T08:06:52;100272.13;;;2.47;100.00
71764;BME280;59602;52.142;5.408;2024-01-15T08:09:19;100273.59;;;2.44;100.00
71764;BME280;59602;52.142;5.408;2024-01-15T08:11:48;100271.34;;;2.46;100.00
71764;BME280;59602;52.142;5.408;2024-01-15T08:14:17;100256.34;;;2.45;100.00
71764;BME280;59602;52.142;5.408;2024-01-15T08:16:44;100260.50;;;2.43;100.00
71764;BME280;59602;52.142;5.408;2024-01-15T08:19:11;100252.00;;;2.41;100.00
71764;BME280;59602;52.142;5.408;2024-01-15T08:21:39;100260.06;;;2.41;100.00
71764;BME280;59602;52.142;5.408;2024-01-15T08:24:08;100271.91;;;2.40;100.00
71764;BME280;59602;52.142;5.408;2024-01-15T08:26:35;100270.69;;;2.37;100.00
71764;BME280;59602;52.142;5.408;2024-01-15T08:29:02;100279.97;;;2.40;100.00
71764;BME280;59602;52.142;5.408;2024-01-15T08:31:29;100285.44;;;2.43;100.00
71764;BME280;59602;52.142;5.408;2024-01-15T08:33:56;100293.38;;;2.40;100.00
71764;BME280;59602;52.142;5.408;2024-01-15T08:36:24;100268.78;;;2.38;100.00
71764;BME280;59602;52.142;5.408;2024-01-15T08:38:51;100265.91;;;2.31;100.00
71764;BME280;59602;52.142;5.408;2024-01-15T08:41:18;100268.00;;;2.25;100.00
71764;BME280;59602;52.142;5.408;2024-01-15T08:43:44;100263.78;;;2.24;100.00
71764;BME280;59602;52.142;5.408;2024-01-15T08:46:11;100270.13;;;2.32;100.00
71764;BME280;59602;52.142;5.408;2024-01-15T08:48:39;100267.66;;;2.39;100.00
71764;BME280;59602;52.142;5.408;2024-01-15T08:51:06;100258.63;;;2.43;100.00
71764;BME280;59602;52.142;5.408;2024-01-15T08:53:35;100269.69;;;2.42;100.00
71764;BME280;59602;52.142;5.408;2024-01-15T08:56:01;100267.34;;;2.40;100.00
71764;BME280;59602;52.142;5.408;2024-01-15T08:58:28;100271.16;;;2.39;100.00
71764;BME280;59602;52.142;5.408;2024-01-15T09:00:55;100271.34;;;2.34;100.00
71764;BME280;59602;52.142;5.408;2024-01-15T09:03:22;100282.97;;;2.38;100.00
71764;BME280;59602;52.142;5.408;2024-01-15T09:05:49;100277.28;;;2.40;100.00
71764;BME280;59602;52.142;5.408;2024-01-15T09:08:16;100282.41;;;2.45;100.00
71764;BME280;59602;52.142;5.408;2024-01-15T09:10:43;100290.00;;;2.55;100.00
71764;BME280;59602;52.142;5.408;2024-01-15T09:13:10;100298.06;;;2.55;100.00
71764;BME280;59602;52.142;5.408;2024-01-15T09:15:36;100301.75;;;2.51;100.00
71764;BME280;59602;52.142;5.408;2024-01-15T09:18:03;100287.44;;;2.46;100.00
71764;BME280;59602;52.142;5.408;2024-01-15T09:20:34;100278.06;;;2.40;100.00
71764;BME280;59602;52.142;5.408;2024-01-15T09:23:00;100273.81;;;2.39;100.00
71764;BME280;59602;52.142;5.408;2024-01-15T09:25:27;100270.34;;;2.39;100.00
71764;BME280;59602;52.142;5.408;2024-01-15T09:27:54;100270.13;;;2.44;100.00
71764;BME280;59602;52.142;5.408;2024-01-15T09:30:21;100272.81;;;2.44;100.00
71764;BME280;59602;52.142;5.408;2024-01-15T09:32:48;100282.78;;;2.43;100.00
71764;BME280;59602;52.142;5.408;2024-01-15T09:35:15;100277.72;;;2.42;100.00
71764;BME280;59602;52.142;5.408;2024-01-15T09:37:42;100279.41;;;2.46;100.00
71764;BME280;59602;52.142;5.408;2024-01-15T09:40:14;100278.13;;;2.56;100.00
71764;BME280;59602;52.142;5.408;2024-01-15T09:42:42;100275.25;;;2.61;100.00
71764;BME280;59602;52.142;5.408;2024-01-15T09:45:10;100274.41;;;2.73;100.00
71764;BME280;59602;52.142;5.408;2024-01-15T09:47:37;100283.69;;;2.76;100.00
71764;BME280;59602;52.142;5.408;2024-01-15T09:50:10;100275.88;;;2.70;100.00
71764;BME280;59602;52.142;5.408;2024-01-15T09:52:38;100274.22;;;2.66;100.00
71764;BME280;59602;52.142;5.408;2024-01-15T09:55:09;100278.59;;;2.58;100.00
71764;BME280;59602;52.142;5.408;2024-01-15T09:57:36;100277.38;;;2.56;100.00
71764;BME280;59602;52.142;5.408;2024-01-15T10:00:04;100273.13;;;2.55;100.00
71764;BME280;59602;52.142;5.408;2024-01-15T10:02:33;100279.72;;;2.57;100.00
71764;BME280;59602;52.142;5.408;2024-01-15T10:05:02;100280.94;;;2.60;100.00
71764;BME280;59602;52.142;5.408;2024-01-15T10:07:36;100294.22;;;2.68;100.00
71764;BME280;59602;52.142;5.408;2024-01-15T10:10:15;100298.19;;;2.87;100.00
71764;BME280;59602;52.142;5.408;2024-01-15T10:12:42;100305.78;;;2.97;100.00
71764;BME280;59602;52.142;5.408;2024-01-15T10:15:10;100285.09;;;2.98;100.00
71764;BME280;59602;52.142;5.408;2024-01-15T10:17:38;100272.31;;;2.95;100.00
71764;BME280;59602;52.142;5.408;2024-01-15T10:20:11;100287.00;;;2.97;100.00
71764;BME280;59602;52.142;5.408;2024-01-15T10:22:42;100295.13;;;3.01;100.00
71764;BME280;59602;52.142;5.408;2024-01-15T10:25:15;100298.38;;;3.06;100.00
71764;BME280;59602;52.142;5.408;2024-01-15T10:27:43;100298.81;;;3.08;100.00
71764;BME280;59602;52.142;5.408;2024-01-15T10:30:10;100304.22;;;2.96;100.00
71764;BME280;59602;52.142;5.408;2024-01-15T10:32:38;100303.00;;;2.81;100.00
71764;BME280;59602;52.142;5.408;2024-01-15T10:35:07;100291.19;;;2.70;100.00
71764;BME280;59602;52.142;5.408;2024-01-15T10:37:34;100300.50;;;2.60;100.00
71764;BME280;59602;52.142;5.408;2024-01-15T10:40:04;100290.66;;;2.52;100.00
71764;BME280;59602;52.142;5.408;2024-01-15T10:42:34;100281.75;;;2.48;100.00
71764;BME280;59602;52.142;5.408;2024-01-15T10:45:01;100289.00;;;2.47;100.00
71764;BME280;59602;52.142;5.408;2024-01-15T10:47:28;100291.56;;;2.56;100.00
71764;BME280;59602;52.142;5.408;2024-01-15T10:49:56;100289.88;;;2.64;100.00
71764;BME280;59602;52.142;5.408;2024-01-15T10:52:23;100291.56;;;2.68;100.00
71764;BME280;59602;52.142;5.408;2024-01-15T10:54:50;100297.88;;;2.76;100.00
71764;BME280;59602;52.142;5.408;2024-01-15T10:57:17;100304.72;;;2.86;100.00
71764;BME280;59602;52.142;5.408;2024-01-15T10:59:45;100309.59;;;2.96;100.00
71764;BME280;59602;52.142;5.408;2024-01-15T11:02:14;100317.38;;;3.01;100.00
71764;BME280;59602;52.142;5.408;2024-01-15T11:04:42;100312.56;;;3.07;100.00
71764;BME280;59602;52.142;5.408;2024-01-15T11:07:10;100322.72;;;3.14;100.00
71764;BME280;59602;52.142;5.408;2024-01-15T11:09:38;100324.72;;;3.17;100.00
71764;BME280;59602;52.142;5.408;2024-01-15T11:12:12;100325.63;;;3.21;100.00
71764;BME280;59602;52.142;5.408;2024-01-15T11:14:47;100326.31;;;3.18;100.00
71764;BME280;59602;52.142;5.408;2024-01-15T11:17:15;100325.53;;;3.17;100.00
71764;BME280;59602;52.142;5.408;2024-01-15T11:22:10;100328.69;;;3.07;100.00
71764;BME280;59602;52.142;5.408;2024-01-15T11:24:39;100326.00;;;3.07;100.00
71764;BME280;59602;52.142;5.408;2024-01-15T11:27:07;100338.22;;;3.04;100.00
71764;BME280;59602;52.142;5.408;2024-01-15T11:29:35;100328.69;;;3.07;100.00
71764;BME280;59602;52.142;5.408;2024-01-15T11:32:09;100326.19;;;3.14;100.00
71764;BME280;59602;52.142;5.408;2024-01-15T11:34:56;100319.91;;;3.22;100.00
71764;BME280;59602;52.142;5.408;2024-01-15T11:37:27;100318.09;;;3.26;100.00
71764;BME280;59602;52.142;5.408;2024-01-15T11:40:01;100315.31;;;3.23;100.00
71764;BME280;59602;52.142;5.408;2024-01-15T11:42:30;100319.47;;;3.20;100.00
71764;BME280;59602;52.142;5.408;2024-01-15T11:44:57;100325.13;;;3.31;100.00
71764;BME280;59602;52.142;5.408;2024-01-15T11:48:13;100326.34;;;3.33;100.00
71764;BME280;59602;52.142;5.408;2024-01-15T11:50:46;100333.84;;;3.28;100.00
71764;BME280;59602;52.142;5.408;2024-01-15T11:56:14;100337.88;;;3.34;100.00
71764;BME280;59602;52.142;5.408;2024-01-15T11:58:41;100327.66;;;3.40;100.00
71764;BME280;59602;52.142;5.408;2024-01-15T12:01:10;100326.78;;;3.36;100.00
71764;BME280;59602;52.142;5.408;2024-01-15T12:03:37;100332.59;;;3.38;100.00
71764;BME280;59602;52.142;5.408;2024-01-15T12:06:07;100335.03;;;3.43;100.00
71764;BME280;59602;52.142;5.408;2024-01-15T12:08:34;100342.50;;;3.49;100.00
71764;BME280;59602;52.142;5.408;2024-01-15T12:11:07;100357.41;;;3.47;100.00
71764;BME280;59602;52.142;5.408;2024-01-15T12:13:39;100351.72;;;3.48;100.00
71764;BME280;59602;52.142;5.408;2024-01-15T12:16:06;100355.50;;;3.47;100.00
71764;BME280;59602;52.142;5.408;2024-01-15T12:18:33;100361.13;;;3.42;100.00
71764;BME280;59602;52.142;5.408;2024-01-15T12:21:00;100373.00;;;3.41;100.00
71764;BME280;59602;52.142;5.408;2024-01-15T12:23:27;100376.03;;;3.40;100.00
71764;BME280;59602;52.142;5.408;2024-01-15T12:25:55;100373.94;;;3.33;100.00
71764;BME280;59602;52.142;5.408;2024-01-15T12:28:22;100380.19;;;3.37;100.00
71764;BME280;59602;52.142;5.408;2024-01-15T12:30:49;100369.19;;;3.42;100.00
71764;BME280;59602;52.142;5.408;2024-01-15T12:33:18;100370.09;;;3.46;100.00
71764;BME280;59602;52.142;5.408;2024-01-15T12:35:47;100385.63;;;3.53;100.00
71764;BME280;59602;52.142;5.408;2024-01-15T12:38:13;100398.06;;;3.45;100.00
71764;BME280;59602;52.142;5.408;2024-01-15T12:40:43;100396.41;;;3.41;100.00
71764;BME280;59602;52.142;5.408;2024-01-15T12:43:12;100395.19;;;3.38;100.00
71764;BME280;59602;52.142;5.408;2024-01-15T12:45:41;100387.38;;;3.33;100.00
71764;BME280;59602;52.142;5.408;2024-01-15T12:48:09;100379.88;;;3.26;100.00
71764;BME280;59602;52.142;5.408;2024-01-15T12:50:37;100388.53;;;3.20;100.00
71764;BME280;59602;52.142;5.408;2024-01-15T12:53:06;100390.22;;;3.12;100.00
71764;BME280;59602;52.142;5.408;2024-01-15T12:55:34;100394.94;;;3.03;100.00
71764;BME280;59602;52.142;5.408;2024-01-15T12:58:01;100388.00;;;3.02;100.00